createdAt,value
2022-10-26T00:02:24.089Z,6.45
2022-10-26T00:04:52.042Z,6.20
2022-10-26T00:07:19.979Z,6.88
2022-10-26T00:09:49.327Z,5.97
2022-10-26T00:12:17.265Z,6.30
2022-10-26T00:14:45.255Z,6.22
2022-10-26T00:17:13.172Z,5.65
2022-10-26T00:19:41.302Z,5.85
2022-10-26T00:22:09.325Z,6.00
2022-10-26T00:24:37.340Z,5.97
2022-10-26T00:27:06.570Z,6.28
2022-10-26T00:29:34.519Z,6.35
2022-10-26T00:32:02.824Z,5.88
2022-10-26T00:34:31.213Z,6.15
2022-10-26T00:36:59.941Z,6.53
2022-10-26T00:39:27.865Z,6.32
2022-10-26T00:41:55.853Z,6.30
2022-10-26T00:45:01.976Z,6.55
2022-10-26T00:47:37.054Z,6.85
2022-10-26T00:50:09.259Z,6.72
2022-10-26T00:52:38.471Z,7.22
2022-10-26T00:55:08.563Z,7.80
2022-10-26T00:57:38.656Z,6.53
2022-10-26T01:00:09.965Z,7.28
2022-10-26T01:02:38.068Z,7.55
2022-10-26T01:05:07.460Z,7.38
2022-10-26T01:07:35.878Z,6.68
2022-10-26T01:10:03.957Z,7.53
2022-10-26T01:12:32.132Z,7.50
2022-10-26T01:15:00.298Z,7.80
2022-10-26T01:17:42.136Z,7.50
2022-10-26T01:20:40.392Z,7.32
2022-10-26T01:23:17.164Z,7.38
2022-10-26T01:26:17.603Z,7.95
2022-10-26T01:29:08.145Z,7.68
2022-10-26T01:31:43.249Z,7.65
2022-10-26T01:34:17.791Z,7.68
2022-10-26T01:36:53.975Z,7.43
2022-10-26T01:39:28.396Z,7.38
2022-10-26T01:42:01.161Z,7.15
2022-10-26T01:44:33.729Z,6.13
2022-10-26T01:47:05.277Z,8.17
2022-10-26T01:49:37.963Z,7.57
2022-10-26T01:52:06.529Z,6.77
2022-10-26T01:57:13.878Z,7.70
2022-10-26T01:59:57.684Z,7.95
2022-10-26T02:05:34.176Z,7.45
2022-10-26T02:08:24.563Z,7.47
2022-10-26T02:11:11.205Z,7.25
2022-10-26T02:13:44.651Z,8.55
2022-10-26T02:16:21.891Z,7.10
2022-10-26T02:18:57.417Z,8.63
2022-10-26T02:21:32.551Z,7.85
2022-10-26T02:24:00.766Z,7.40
2022-10-26T02:26:31.360Z,7.63
2022-10-26T02:29:03.869Z,8.32
2022-10-26T02:31:33.826Z,8.00
2022-10-26T02:34:08.314Z,8.38
2022-10-26T02:36:40.011Z,7.43
2022-10-26T02:39:10.396Z,8.48
2022-10-26T02:41:40.597Z,7.50
2022-10-26T02:44:14.326Z,8.07
2022-10-26T02:46:43.596Z,8.60
2022-10-26T02:49:13.778Z,7.75
2022-10-26T02:54:26.387Z,8.32
2022-10-26T02:56:59.124Z,8.63
2022-10-26T02:59:31.722Z,8.70
2022-10-26T03:01:59.736Z,8.93
2022-10-26T03:04:34.422Z,8.05
2022-10-26T03:07:03.466Z,8.13
2022-10-26T03:09:31.444Z,7.40
2022-10-26T03:11:59.619Z,8.60
2022-10-26T03:14:27.751Z,8.00
2022-10-26T03:16:55.781Z,9.40
2022-10-26T03:19:23.961Z,8.65
2022-10-26T03:21:53.222Z,9.25
2022-10-26T03:24:21.073Z,8.98
2022-10-26T03:26:48.925Z,8.52
2022-10-26T03:29:16.943Z,9.82
2022-10-26T03:31:44.840Z,9.02
2022-10-26T03:34:13.962Z,9.82
2022-10-26T03:36:41.857Z,10.13
2022-10-26T03:39:11.186Z,11.75
2022-10-26T03:41:39.035Z,11.25
2022-10-26T03:44:06.969Z,10.07
2022-10-26T03:46:35.062Z,10.40
2022-10-26T03:49:02.955Z,10.20
2022-10-26T03:51:31.063Z,10.35
2022-10-26T03:53:58.973Z,9.88
2022-10-26T03:56:28.539Z,10.38
2022-10-26T03:58:56.482Z,10.38
2022-10-26T04:01:24.610Z,10.75
2022-10-26T04:03:52.528Z,10.95
2022-10-26T04:06:20.556Z,11.20
2022-10-26T04:08:48.511Z,10.55
2022-10-26T04:11:16.448Z,11.73
2022-10-26T04:13:45.736Z,11.20
2022-10-26T04:16:13.597Z,11.77
2022-10-26T04:18:41.476Z,11.40
2022-10-26T04:21:09.309Z,11.38
2022-10-26T04:23:37.159Z,11.75
2022-10-26T04:26:06.649Z,10.55
2022-10-26T04:28:35.251Z,11.93
2022-10-26T04:31:04.656Z,11.02
2022-10-26T04:33:33.031Z,11.20
2022-10-26T04:36:02.069Z,11.05
2022-10-26T04:38:30.221Z,11.38
2022-10-26T04:40:58.321Z,11.00
2022-10-26T04:43:26.410Z,11.77
2022-10-26T04:45:57.432Z,11.13
2022-10-26T04:48:27.018Z,12.02
2022-10-26T04:50:54.974Z,12.25
2022-10-26T04:53:22.829Z,11.80
2022-10-26T04:55:50.670Z,11.40
2022-10-26T04:58:18.517Z,12.38
2022-10-26T05:00:46.456Z,12.68
2022-10-26T05:03:14.309Z,13.23
2022-10-26T05:05:43.769Z,12.88
2022-10-26T05:08:11.675Z,12.88
2022-10-26T05:10:39.598Z,13.50
2022-10-26T05:13:07.674Z,12.77
2022-10-26T05:15:35.690Z,13.40
2022-10-26T05:18:06.534Z,13.57
2022-10-26T05:20:36.173Z,12.77
2022-10-26T05:23:07.414Z,12.57
2022-10-26T05:25:37.859Z,12.25
2022-10-26T05:28:08.073Z,13.48
2022-10-26T05:30:36.515Z,12.93
2022-10-26T05:33:04.424Z,13.20
2022-10-26T05:35:33.884Z,11.95
2022-10-26T05:38:09.740Z,12.38
2022-10-26T05:40:38.146Z,11.40
2022-10-26T05:43:06.194Z,13.52
2022-10-26T05:45:34.048Z,13.55
2022-10-26T05:48:03.042Z,13.32
2022-10-26T05:50:31.540Z,13.82
2022-10-26T05:52:59.629Z,14.18
2022-10-26T05:55:29.707Z,11.70
2022-10-26T05:57:58.129Z,13.25
2022-10-26T06:00:28.664Z,13.00
2022-10-26T06:03:08.763Z,12.05
2022-10-26T06:05:39.893Z,12.45
2022-10-26T06:08:11.417Z,12.25
2022-10-26T06:10:41.669Z,11.95
2022-10-26T06:13:10.062Z,11.73
2022-10-26T06:15:48.166Z,12.13
2022-10-26T06:18:26.829Z,12.77
2022-10-26T06:21:11.258Z,12.32
2022-10-26T06:23:49.898Z,11.80
2022-10-26T06:26:31.228Z,11.15
2022-10-26T06:29:11.235Z,12.25
2022-10-26T06:31:39.212Z,11.57
2022-10-26T06:34:07.211Z,11.57
2022-10-26T06:36:36.107Z,12.30
2022-10-26T06:39:07.968Z,11.82
2022-10-26T06:41:38.142Z,12.80
2022-10-26T06:44:07.112Z,11.43
2022-10-26T06:46:42.774Z,11.57
2022-10-26T06:49:21.077Z,11.23
2022-10-26T06:51:54.622Z,11.30
2022-10-26T06:56:55.758Z,11.00
2022-10-26T06:59:33.890Z,9.52
2022-10-26T07:02:05.597Z,10.82
2022-10-26T07:04:34.834Z,10.40
2022-10-26T07:07:03.042Z,11.05
2022-10-26T07:09:31.135Z,11.05
2022-10-26T07:12:00.819Z,10.35
2022-10-26T07:14:28.767Z,11.63
2022-10-26T07:16:57.040Z,11.10
2022-10-26T07:19:25.153Z,11.13
2022-10-26T07:21:56.617Z,10.55
2022-10-26T07:24:24.624Z,10.15
2022-10-26T07:26:54.621Z,10.30
2022-10-26T07:29:24.377Z,11.18
2022-10-26T07:34:22.023Z,9.45
2022-10-26T07:36:51.695Z,9.65
2022-10-26T07:39:22.140Z,9.55
2022-10-26T07:41:50.345Z,9.80
2022-10-26T07:44:18.291Z,10.07
2022-10-26T07:46:47.475Z,9.77
2022-10-26T07:49:19.144Z,8.90
2022-10-26T07:51:47.602Z,9.63
2022-10-26T07:54:15.538Z,8.77
2022-10-26T07:56:43.441Z,8.73
2022-10-26T07:59:13.126Z,8.95
2022-10-26T08:01:41.334Z,8.40
2022-10-26T08:04:10.913Z,8.70
2022-10-26T08:06:38.976Z,8.95
2022-10-26T08:09:07.171Z,8.90
2022-10-26T08:11:37.031Z,8.13
2022-10-26T08:14:05.869Z,8.40
2022-10-26T08:16:34.905Z,7.78
2022-10-26T08:19:02.952Z,7.95
2022-10-26T08:21:39.551Z,7.68
2022-10-26T08:24:08.666Z,7.88
2022-10-26T08:26:36.748Z,8.35
2022-10-26T08:29:04.829Z,8.90
2022-10-26T08:31:32.735Z,7.82
2022-10-26T08:34:01.815Z,7.35
2022-10-26T08:36:30.092Z,7.45
2022-10-26T08:41:37.946Z,7.80
2022-10-26T08:44:21.679Z,6.53
2022-10-26T08:46:54.493Z,6.63
2022-10-26T08:49:26.256Z,6.55
2022-10-26T08:51:58.938Z,7.05
2022-10-26T08:54:37.283Z,6.43
2022-10-26T08:57:15.809Z,6.68
2022-10-26T08:59:50.287Z,6.30
2022-10-26T09:02:18.986Z,6.53
2022-10-26T09:04:47.158Z,6.07
2022-10-26T09:07:27.246Z,5.90
2022-10-26T09:10:05.421Z,5.22
2022-10-26T09:12:47.211Z,4.65
2022-10-26T09:15:23.805Z,4.75
2022-10-26T09:17:59.144Z,4.45
2022-10-26T09:20:49.071Z,4.25
2022-10-26T09:23:30.372Z,4.03
2022-10-26T09:26:02.436Z,3.80
2022-10-26T09:28:36.635Z,3.60
2022-10-26T09:31:05.852Z,3.88
2022-10-26T09:33:38.863Z,3.60
2022-10-26T09:36:11.982Z,3.38
2022-10-26T09:38:47.769Z,3.45
2022-10-26T09:41:26.101Z,2.97
2022-10-26T09:44:02.796Z,3.45
2022-10-26T09:46:35.775Z,3.35
2022-10-26T09:49:07.752Z,3.55
2022-10-26T09:51:38.040Z,3.33
2022-10-26T09:54:14.809Z,3.47
2022-10-26T09:56:45.889Z,3.10
2022-10-26T09:59:15.792Z,3.35
2022-10-26T10:01:43.901Z,2.75
2022-10-26T10:04:20.203Z,3.08
2022-10-26T10:06:49.473Z,3.17
2022-10-26T10:09:19.315Z,2.60
2022-10-26T10:11:55.360Z,3.83
2022-10-26T10:14:25.319Z,2.63
2022-10-26T10:16:56.144Z,2.42
2022-10-26T10:19:27.935Z,2.67
2022-10-26T10:21:58.721Z,3.03
2022-10-26T10:24:29.259Z,2.63
2022-10-26T10:27:01.275Z,2.85
2022-10-26T10:29:31.053Z,2.60
2022-10-26T10:32:01.026Z,3.30
2022-10-26T10:34:31.924Z,3.13
2022-10-26T10:37:01.862Z,3.70
2022-10-26T10:39:39.654Z,2.97
2022-10-26T10:42:19.659Z,2.47
2022-10-26T10:44:52.292Z,3.00
2022-10-26T10:47:24.063Z,3.03
2022-10-26T10:49:55.722Z,2.53
2022-10-26T10:52:27.403Z,2.65
2022-10-26T10:55:08.940Z,5.20
2022-10-26T10:57:52.507Z,2.85
2022-10-26T11:00:25.673Z,2.80
2022-10-26T11:03:16.714Z,3.22
2022-10-26T11:05:55.521Z,2.80
2022-10-26T11:08:30.117Z,2.72
2022-10-26T11:11:02.891Z,2.83
2022-10-26T11:13:38.355Z,3.03
2022-10-26T11:16:13.592Z,2.50
2022-10-26T11:18:45.588Z,2.75
2022-10-26T11:21:24.274Z,2.58
2022-10-26T11:24:01.764Z,2.75
2022-10-26T11:26:34.961Z,2.70
2022-10-26T11:29:08.523Z,2.65
2022-10-26T11:31:41.388Z,2.60
2022-10-26T11:34:20.795Z,2.97
2022-10-26T11:36:55.058Z,2.38
2022-10-26T11:39:32.972Z,2.10
2022-10-26T11:42:05.425Z,2.80
2022-10-26T11:44:41.025Z,2.78
2022-10-26T11:47:15.984Z,3.03
2022-10-26T11:49:49.215Z,3.05
2022-10-26T11:52:23.747Z,3.03
2022-10-26T11:54:55.750Z,4.22
2022-10-26T11:57:25.009Z,3.10
2022-10-26T11:59:57.062Z,2.80
2022-10-26T12:02:26.972Z,2.85
2022-10-26T12:05:00.166Z,3.08
2022-10-26T12:07:32.471Z,2.85
2022-10-26T12:10:02.674Z,2.35
2022-10-26T12:12:39.397Z,2.30
2022-10-26T12:15:24.833Z,2.65
2022-10-26T12:18:07.342Z,2.70
2022-10-26T12:21:02.846Z,2.80
2022-10-26T12:26:39.930Z,2.60
2022-10-26T12:29:29.367Z,2.13
2022-10-26T12:32:00.535Z,2.30
2022-10-26T12:34:58.713Z,2.65
2022-10-26T12:37:36.933Z,3.28
2022-10-26T12:40:43.829Z,2.00
2022-10-26T12:43:37.856Z,3.50
2022-10-26T12:49:45.842Z,3.00
2022-10-26T12:52:29.066Z,4.07
2022-10-26T12:55:41.533Z,3.38
2022-10-26T12:58:46.777Z,3.15
2022-10-26T13:04:38.846Z,3.55
2022-10-26T13:07:29.036Z,2.95
2022-10-26T13:10:02.386Z,3.30
2022-10-26T13:12:39.705Z,3.63
2022-10-26T13:15:21.625Z,3.65
2022-10-26T13:18:08.968Z,2.85
2022-10-26T13:20:52.357Z,3.58
2022-10-26T13:23:26.778Z,4.45
2022-10-26T13:26:12.058Z,3.00
2022-10-26T13:28:51.982Z,3.78
2022-10-26T13:31:57.018Z,3.40
2022-10-26T13:34:28.637Z,2.90
2022-10-26T13:37:17.072Z,3.85
2022-10-26T13:39:47.601Z,4.65
2022-10-26T13:42:19.298Z,5.07
2022-10-26T13:44:53.782Z,4.70
2022-10-26T13:47:28.322Z,4.88
2022-10-26T13:50:05.182Z,5.13
2022-10-26T13:52:38.079Z,5.60
2022-10-26T13:55:11.147Z,5.30
2022-10-26T13:57:43.893Z,4.75
2022-10-26T14:00:20.351Z,5.40
2022-10-26T14:02:48.777Z,5.85
2022-10-26T14:05:19.594Z,5.10
2022-10-26T14:07:55.865Z,4.72
2022-10-26T14:10:28.930Z,5.25
2022-10-26T14:12:57.203Z,4.93
2022-10-26T14:15:27.934Z,5.68
2022-10-26T14:17:56.935Z,5.00
2022-10-26T14:20:27.371Z,5.35
2022-10-26T14:22:57.009Z,4.88
2022-10-26T14:25:36.220Z,4.57
2022-10-26T14:28:22.898Z,5.22
2022-10-26T14:30:52.296Z,4.57
2022-10-26T14:33:21.682Z,4.30
2022-10-26T14:35:50.295Z,4.53
2022-10-26T14:38:26.429Z,4.28
2022-10-26T14:40:57.252Z,4.07
2022-10-26T14:43:26.910Z,3.78
2022-10-26T14:45:56.826Z,3.97
2022-10-26T14:48:30.016Z,4.97
2022-10-26T14:53:35.527Z,4.30
2022-10-26T14:56:06.772Z,4.13
2022-10-26T14:58:36.136Z,4.68
2022-10-26T15:01:18.483Z,4.90
2022-10-26T15:03:49.773Z,4.72
2022-10-26T15:06:34.326Z,5.07
2022-10-26T15:09:06.805Z,5.47
2022-10-26T15:11:36.524Z,5.57
2022-10-26T15:14:04.632Z,5.70
2022-10-26T15:16:36.097Z,5.97
2022-10-26T15:19:10.808Z,6.00
2022-10-26T15:21:41.087Z,7.07
2022-10-26T15:24:36.057Z,7.35
2022-10-26T15:27:15.757Z,7.38
2022-10-26T15:29:45.571Z,7.47
2022-10-26T15:32:29.790Z,7.70
2022-10-26T15:35:25.406Z,7.97
2022-10-26T15:37:55.665Z,8.35
2022-10-26T15:42:55.179Z,9.15
2022-10-26T15:45:24.701Z,8.35
2022-10-26T15:47:54.667Z,8.23
2022-10-26T15:50:24.976Z,8.10
2022-10-26T15:53:00.965Z,8.25
2022-10-26T15:55:32.264Z,8.13
2022-10-26T15:58:00.145Z,8.30
2022-10-26T16:00:28.583Z,7.78
2022-10-26T16:02:57.073Z,7.30
2022-10-26T16:05:25.073Z,8.63
2022-10-26T16:07:53.232Z,7.20
2022-10-26T16:10:25.841Z,7.22
2022-10-26T16:12:55.529Z,7.55
2022-10-26T16:15:25.460Z,7.30
2022-10-26T16:17:54.006Z,7.00
2022-10-26T16:20:24.395Z,7.10
2022-10-26T16:22:53.814Z,6.85
2022-10-26T16:25:24.434Z,7.43
2022-10-26T16:27:53.400Z,6.20
2022-10-26T16:30:25.905Z,6.90
2022-10-26T16:32:56.269Z,6.05
2022-10-26T16:35:24.647Z,7.55
2022-10-26T16:37:52.838Z,6.75
2022-10-26T16:40:20.868Z,6.65
2022-10-26T16:42:49.233Z,5.70
2022-10-26T16:45:17.739Z,6.57
2022-10-26T16:47:47.751Z,5.75
2022-10-26T16:50:16.598Z,5.07
2022-10-26T16:52:47.409Z,5.70
2022-10-26T16:55:15.606Z,5.43
2022-10-26T16:57:43.495Z,5.25
2022-10-26T17:00:12.311Z,5.15
2022-10-26T17:02:41.059Z,5.72
2022-10-26T17:05:10.847Z,4.75
2022-10-26T17:07:38.871Z,4.63
2022-10-26T17:10:10.119Z,4.45
2022-10-26T17:12:37.981Z,4.43
2022-10-26T17:15:09.653Z,4.75
2022-10-26T17:17:37.810Z,4.32
2022-10-26T17:20:07.171Z,4.00
2022-10-26T17:22:36.384Z,4.40
2022-10-26T17:25:04.585Z,4.15
2022-10-26T17:27:33.530Z,4.25
2022-10-26T17:30:02.852Z,4.75
2022-10-26T17:32:32.150Z,4.57
2022-10-26T17:35:02.335Z,4.55
2022-10-26T17:37:30.766Z,4.10
2022-10-26T17:40:00.422Z,5.25
2022-10-26T17:42:28.534Z,4.28
2022-10-26T17:44:56.614Z,4.35
2022-10-26T17:47:24.576Z,4.35
2022-10-26T17:49:52.532Z,3.95
2022-10-26T17:52:20.614Z,4.68
2022-10-26T17:54:48.505Z,5.05
2022-10-26T17:57:17.808Z,4.07
2022-10-26T17:59:45.780Z,4.20
2022-10-26T18:02:14.177Z,4.65
2022-10-26T18:04:42.399Z,4.35
2022-10-26T18:07:10.354Z,4.97
2022-10-26T18:09:38.413Z,5.00
2022-10-26T18:12:07.507Z,4.68
2022-10-26T18:14:37.214Z,5.18
2022-10-26T18:17:05.304Z,5.05
2022-10-26T18:19:34.090Z,5.15
2022-10-26T18:22:02.866Z,5.65
2022-10-26T18:24:31.078Z,5.78
2022-10-26T18:26:59.452Z,5.65
2022-10-26T18:29:27.486Z,5.60
2022-10-26T18:31:56.951Z,5.63
2022-10-26T18:34:25.150Z,5.10
2022-10-26T18:36:54.485Z,6.03
2022-10-26T18:39:22.469Z,5.00
2022-10-26T18:41:50.832Z,5.20
2022-10-26T18:44:19.755Z,5.25
2022-10-26T18:46:51.880Z,5.90
2022-10-26T18:49:21.427Z,5.22
2022-10-26T18:51:49.496Z,5.38
2022-10-26T18:54:17.426Z,5.40
2022-10-26T18:56:45.466Z,5.50
2022-10-26T18:59:13.698Z,5.13
2022-10-26T19:01:42.421Z,5.55
2022-10-26T19:04:11.601Z,5.05
2022-10-26T19:06:45.106Z,5.13
2022-10-26T19:11:42.382Z,4.80
2022-10-26T19:14:10.387Z,5.53
2022-10-26T19:16:47.454Z,4.97
2022-10-26T19:19:17.059Z,5.30
2022-10-26T19:21:47.258Z,5.13
2022-10-26T19:24:18.041Z,5.93
2022-10-26T19:26:47.162Z,5.40
2022-10-26T19:29:16.862Z,5.68
2022-10-26T19:31:46.421Z,6.07
2022-10-26T19:34:16.540Z,6.00
2022-10-26T19:36:47.293Z,5.85
2022-10-26T19:39:16.773Z,6.07
2022-10-26T19:41:46.202Z,5.40
2022-10-26T19:44:15.448Z,5.75
2022-10-26T19:46:44.275Z,6.00
2022-10-26T19:49:13.507Z,6.50
2022-10-26T19:51:41.580Z,6.80
2022-10-26T19:54:10.854Z,6.18
2022-10-26T19:56:39.521Z,5.70
2022-10-26T19:59:09.376Z,5.75
2022-10-26T20:01:37.648Z,5.55
2022-10-26T20:04:06.343Z,5.28
2022-10-26T20:06:36.755Z,5.10
2022-10-26T20:09:05.898Z,6.18
2022-10-26T20:11:38.107Z,6.32
2022-10-26T20:14:07.629Z,6.10
2022-10-26T20:16:35.816Z,5.90
2022-10-26T20:19:05.218Z,5.30
2022-10-26T20:21:33.774Z,5.50
2022-10-26T20:24:02.474Z,5.25
2022-10-26T20:26:31.886Z,5.90
2022-10-26T20:29:04.226Z,6.25
2022-10-26T20:31:32.721Z,6.28
2022-10-26T20:34:00.758Z,7.00
2022-10-26T20:36:28.661Z,5.68
2022-10-26T20:38:58.023Z,5.63
2022-10-26T20:41:27.211Z,6.35
2022-10-26T20:43:57.988Z,6.45
2022-10-26T20:46:29.127Z,5.90
2022-10-26T20:48:57.738Z,5.75
2022-10-26T20:51:47.601Z,5.93
2022-10-26T20:54:30.300Z,5.88
2022-10-26T20:57:01.773Z,6.90
2022-10-26T20:59:36.728Z,6.25
2022-10-26T21:02:06.415Z,6.32
2022-10-26T21:04:34.472Z,7.07
2022-10-26T21:07:02.661Z,6.60
2022-10-26T21:09:32.938Z,6.22
2022-10-26T21:12:04.650Z,6.38
2022-10-26T21:14:35.821Z,6.43
2022-10-26T21:17:03.642Z,6.13
2022-10-26T21:19:32.955Z,6.18
2022-10-26T21:22:01.416Z,6.97
2022-10-26T21:24:29.785Z,6.68
2022-10-26T21:26:57.751Z,7.18
2022-10-26T21:29:25.670Z,6.85
2022-10-26T21:31:53.548Z,7.13
2022-10-26T21:34:21.395Z,7.65
2022-10-26T21:36:50.567Z,7.00
2022-10-26T21:39:18.445Z,6.93
2022-10-26T21:41:46.303Z,7.10
2022-10-26T21:44:25.982Z,7.45
2022-10-26T21:47:02.027Z,7.15
2022-10-26T21:49:29.917Z,7.30
2022-10-26T21:51:59.159Z,6.63
2022-10-26T21:54:27.149Z,6.78
2022-10-26T21:56:55.137Z,7.47
2022-10-26T21:59:23.012Z,7.40
2022-10-26T22:01:51.086Z,6.85
2022-10-26T22:04:19.039Z,7.88
2022-10-26T22:06:46.870Z,8.02
2022-10-26T22:09:16.105Z,7.55
2022-10-26T22:11:43.995Z,6.65
2022-10-26T22:14:13.589Z,7.55
2022-10-26T22:16:42.195Z,6.80
2022-10-26T22:19:10.635Z,6.63
2022-10-26T22:21:40.648Z,6.53
2022-10-26T22:24:09.712Z,5.60
2022-10-26T22:26:39.462Z,5.78
2022-10-26T22:29:07.521Z,6.00
2022-10-26T22:31:38.211Z,7.07
2022-10-26T22:34:08.510Z,5.93
2022-10-26T22:36:36.650Z,5.97
2022-10-26T22:39:04.814Z,5.90
2022-10-26T22:41:32.872Z,5.95
2022-10-26T22:44:02.059Z,5.93
2022-10-26T22:46:30.297Z,5.50
2022-10-26T22:48:59.895Z,5.60
2022-10-26T22:51:29.478Z,5.68
2022-10-26T22:53:59.174Z,5.35
2022-10-26T22:56:28.462Z,5.03
2022-10-26T22:58:56.770Z,5.65
2022-10-26T23:01:28.576Z,4.82
2022-10-26T23:03:57.103Z,5.15
2022-10-26T23:06:26.965Z,5.30
2022-10-26T23:08:55.174Z,5.28
2022-10-26T23:11:24.840Z,5.10
2022-10-26T23:13:54.063Z,5.68
2022-10-26T23:16:22.524Z,4.85
2022-10-26T23:18:53.228Z,5.25
2022-10-26T23:21:22.197Z,4.90
2022-10-26T23:23:50.378Z,4.18
2022-10-26T23:26:20.987Z,4.82
2022-10-26T23:28:49.831Z,5.55
2022-10-26T23:31:19.600Z,5.38
2022-10-26T23:33:47.992Z,4.28
2022-10-26T23:36:17.244Z,4.85
2022-10-26T23:38:45.519Z,4.32
2022-10-26T23:41:13.824Z,5.60
2022-10-26T23:43:41.753Z,4.72
2022-10-26T23:46:09.637Z,5.40
2022-10-26T23:48:37.632Z,4.80
2022-10-26T23:51:05.902Z,4.65
2022-10-26T23:53:35.441Z,5.03
2022-10-26T23:56:03.411Z,5.47
2022-10-26T23:58:31.274Z,4.07
